sensor_id;sensor_type;location;lat;lon;timestamp;temperature;humidity
9373;DHT22;10838;52.350;9.790;2022-11-15T00:00:06;6.40;99.20
9373;DHT22;10838;52.350;9.790;2022-11-15T00:02:33;6.40;99.20
9373;DHT22;10838;52.350;9.790;2022-11-15T00:05:02;6.30;99.10
9373;DHT22;10838;52.350;9.790;2022-11-15T00:07:28;6.30;99.10
9373;DHT22;10838;52.350;9.790;2022-11-15T00:09:55;6.30;99.10
9373;DHT22;10838;52.350;9.790;2022-11-15T00:12:22;6.20;99.10
9373;DHT22;10838;52.350;9.790;2022-11-15T00:14:48;6.20;99.10
9373;DHT22;10838;52.350;9.790;2022-11-15T00:17:15;6.20;99.10
9373;DHT22;10838;52.350;9.790;2022-11-15T00:19:41;6.10;99.10
9373;DHT22;10838;52.350;9.790;2022-11-15T00:22:10;6.10;99.10
9373;DHT22;10838;52.350;9.790;2022-11-15T00:24:36;6.10;99.10
9373;DHT22;10838;52.350;9.790;2022-11-15T00:27:03;6.00;99.00
9373;DHT22;10838;52.350;9.790;2022-11-15T00:29:30;6.00;99.10
9373;DHT22;10838;52.350;9.790;2022-11-15T00:31:56;6.00;99.00
9373;DHT22;10838;52.350;9.790;2022-11-15T00:34:23;6.00;99.10
9373;DHT22;10838;52.350;9.790;2022-11-15T00:36:49;6.00;99.10
9373;DHT22;10838;52.350;9.790;2022-11-15T00:39:17;6.00;99.10
9373;DHT22;10838;52.350;9.790;2022-11-15T00:41:44;6.00;99.10
9373;DHT22;10838;52.350;9.790;2022-11-15T00:44:11;5.90;99.10
9373;DHT22;10838;52.350;9.790;2022-11-15T00:46:37;5.90;99.10
9373;DHT22;10838;52.350;9.790;2022-11-15T00:49:04;5.90;99.10
9373;DHT22;10838;52.350;9.790;2022-11-15T00:51:31;5.90;99.10
9373;DHT22;10838;52.350;9.790;2022-11-15T00:53:57;5.90;99.10
9373;DHT22;10838;52.350;9.790;2022-11-15T00:56:25;5.90;99.10
9373;DHT22;10838;52.350;9.790;2022-11-15T00:58:52;5.90;99.10
9373;DHT22;10838;52.350;9.790;2022-11-15T01:01:19;5.90;99.10
9373;DHT22;10838;52.350;9.790;2022-11-15T01:03:46;5.90;99.20
9373;DHT22;10838;52.350;9.790;2022-11-15T01:06:12;5.90;99.20
9373;DHT22;10838;52.350;9.790;2022-11-15T01:08:39;6.00;99.20
9373;DHT22;10838;52.350;9.790;2022-11-15T01:11:08;6.00;99.30
9373;DHT22;10838;52.350;9.790;2022-11-15T01:13:38;6.00;99.30
9373;DHT22;10838;52.350;9.790;2022-11-15T01:16:07;6.10;99.30
9373;DHT22;10838;52.350;9.790;2022-11-15T01:18:34;6.10;99.40
9373;DHT22;10838;52.350;9.790;2022-11-15T01:21:05;6.10;99.40
9373;DHT22;10838;52.350;9.790;2022-11-15T01:23:31;6.10;99.40
9373;DHT22;10838;52.350;9.790;2022-11-15T01:25:59;6.20;99.40
9373;DHT22;10838;52.350;9.790;2022-11-15T01:28:29;6.20;99.40
9373;DHT22;10838;52.350;9.790;2022-11-15T01:30:59;6.20;99.50
9373;DHT22;10838;52.350;9.790;2022-11-15T01:33:26;6.20;99.50
9373;DHT22;10838;52.350;9.790;2022-11-15T01:35:53;6.20;99.50
9373;DHT22;10838;52.350;9.790;2022-11-15T01:38:19;6.20;99.50
9373;DHT22;10838;52.350;9.790;2022-11-15T01:40:46;6.20;99.50
9373;DHT22;10838;52.350;9.790;2022-11-15T01:43:21;6.20;99.50
9373;DHT22;10838;52.350;9.790;2022-11-15T01:45:51;6.20;99.60
9373;DHT22;10838;52.350;9.790;2022-11-15T01:48:20;6.20;99.60
9373;DHT22;10838;52.350;9.790;2022-11-15T01:50:49;6.30;99.60
9373;DHT22;10838;52.350;9.790;2022-11-15T01:53:17;6.20;99.60
9373;DHT22;10838;52.350;9.790;2022-11-15T01:55:45;6.20;99.60
9373;DHT22;10838;52.350;9.790;2022-11-15T01:58:12;6.20;99.60
9373;DHT22;10838;52.350;9.790;2022-11-15T02:00:39;6.20;99.60
9373;DHT22;10838;52.350;9.790;2022-11-15T02:03:06;6.20;99.60
9373;DHT22;10838;52.350;9.790;2022-11-15T02:05:35;6.20;99.60
9373;DHT22;10838;52.350;9.790;2022-11-15T02:08:02;6.20;99.60
9373;DHT22;10838;52.350;9.790;2022-11-15T02:10:29;6.20;99.60
9373;DHT22;10838;52.350;9.790;2022-11-15T02:16:26;6.20;99.60
9373;DHT22;10838;52.350;9.790;2022-11-15T02:19:02;6.20;99.60
9373;DHT22;10838;52.350;9.790;2022-11-15T02:21:38;6.20;99.60
9373;DHT22;10838;52.350;9.790;2022-11-15T02:24:24;6.20;99.70
9373;DHT22;10838;52.350;9.790;2022-11-15T02:30:20;6.20;99.70
9373;DHT22;10838;52.350;9.790;2022-11-15T02:32:50;6.20;99.70
9373;DHT22;10838;52.350;9.790;2022-11-15T02:35:26;6.30;99.70
9373;DHT22;10838;52.350;9.790;2022-11-15T02:37:57;6.30;99.80
9373;DHT22;10838;52.350;9.790;2022-11-15T02:40:33;6.30;99.80
9373;DHT22;10838;52.350;9.790;2022-11-15T02:43:05;6.30;99.80
9373;DHT22;10838;52.350;9.790;2022-11-15T02:46:00;6.30;99.90
9373;DHT22;10838;52.350;9.790;2022-11-15T02:48:28;6.40;99.90
9373;DHT22;10838;52.350;9.790;2022-11-15T02:50:56;6.40;99.90
9373;DHT22;10838;52.350;9.790;2022-11-15T02:53:25;6.50;99.90
9373;DHT22;10838;52.350;9.790;2022-11-15T02:55:53;6.60;99.90
9373;DHT22;10838;52.350;9.790;2022-11-15T02:58:42;6.70;99.90
9373;DHT22;10838;52.350;9.790;2022-11-15T03:01:21;6.90;99.90
9373;DHT22;10838;52.350;9.790;2022-11-15T03:03:59;7.00;99.90
9373;DHT22;10838;52.350;9.790;2022-11-15T03:06:35;7.10;99.90
9373;DHT22;10838;52.350;9.790;2022-11-15T03:09:06;7.30;99.90
9373;DHT22;10838;52.350;9.790;2022-11-15T03:11:37;7.40;99.90
9373;DHT22;10838;52.350;9.790;2022-11-15T03:14:13;7.50;99.90
9373;DHT22;10838;52.350;9.790;2022-11-15T03:16:50;7.70;99.90
9373;DHT22;10838;52.350;9.790;2022-11-15T03:19:27;7.80;99.90
9373;DHT22;10838;52.350;9.790;2022-11-15T03:21:58;7.90;99.90
9373;DHT22;10838;52.350;9.790;2022-11-15T03:24:29;8.00;99.90
9373;DHT22;10838;52.350;9.790;2022-11-15T03:26:59;8.10;99.90
9373;DHT22;10838;52.350;9.790;2022-11-15T03:29:31;8.20;99.90
9373;DHT22;10838;52.350;9.790;2022-11-15T03:32:03;8.30;99.90
9373;DHT22;10838;52.350;9.790;2022-11-15T03:34:34;8.40;99.90
9373;DHT22;10838;52.350;9.790;2022-11-15T03:37:04;8.60;99.90
9373;DHT22;10838;52.350;9.790;2022-11-15T03:39:31;8.70;99.90
9373;DHT22;10838;52.350;9.790;2022-11-15T03:42:06;8.80;99.90
9373;DHT22;10838;52.350;9.790;2022-11-15T03:44:41;8.80;99.90
9373;DHT22;10838;52.350;9.790;2022-11-15T03:47:13;8.90;99.90
9373;DHT22;10838;52.350;9.790;2022-11-15T03:49:45;9.00;99.90
9373;DHT22;10838;52.350;9.790;2022-11-15T03:52:13;9.10;99.90
9373;DHT22;10838;52.350;9.790;2022-11-15T03:54:54;9.10;99.90
9373;DHT22;10838;52.350;9.790;2022-11-15T03:57:20;9.20;99.90
9373;DHT22;10838;52.350;9.790;2022-11-15T03:59:47;9.20;99.90
9373;DHT22;10838;52.350;9.790;2022-11-15T04:02:15;9.30;99.90
9373;DHT22;10838;52.350;9.790;2022-11-15T04:04:42;9.30;99.90
9373;DHT22;10838;52.350;9.790;2022-11-15T04:07:08;9.30;99.90
9373;DHT22;10838;52.350;9.790;2022-11-15T04:09:35;9.40;99.90
9373;DHT22;10838;52.350;9.790;2022-11-15T04:12:23;9.40;99.90
9373;DHT22;10838;52.350;9.790;2022-11-15T04:14:56;9.40;99.90
9373;DHT22;10838;52.350;9.790;2022-11-15T04:17:35;9.40;99.90
9373;DHT22;10838;52.350;9.790;2022-11-15T04:20:03;9.50;99.90
9373;DHT22;10838;52.350;9.790;2022-11-15T04:22:47;9.50;99.90
9373;DHT22;10838;52.350;9.790;2022-11-15T04:25:31;9.50;99.90
9373;DHT22;10838;52.350;9.790;2022-11-15T04:27:58;9.60;99.90
9373;DHT22;10838;52.350;9.790;2022-11-15T04:30:24;9.60;99.90
9373;DHT22;10838;52.350;9.790;2022-11-15T04:32:52;9.60;99.90
9373;DHT22;10838;52.350;9.790;2022-11-15T04:35:19;9.60;99.90
9373;DHT22;10838;52.350;9.790;2022-11-15T04:37:46;9.70;99.90
9373;DHT22;10838;52.350;9.790;2022-11-15T04:40:11;9.70;99.90
9373;DHT22;10838;52.350;9.790;2022-11-15T04:42:40;9.70;99.90
9373;DHT22;10838;52.350;9.790;2022-11-15T04:45:08;9.80;99.90
9373;DHT22;10838;52.350;9.790;2022-11-15T04:47:35;9.80;99.90
9373;DHT22;10838;52.350;9.790;2022-11-15T04:50:04;9.90;99.90
9373;DHT22;10838;52.350;9.790;2022-11-15T04:52:31;9.90;99.90
9373;DHT22;10838;52.350;9.790;2022-11-15T04:54:57;9.90;99.90
9373;DHT22;10838;52.350;9.790;2022-11-15T04:57:24;10.00;99.90
9373;DHT22;10838;52.350;9.790;2022-11-15T04:59:51;10.00;99.90
9373;DHT22;10838;52.350;9.790;2022-11-15T05:02:17;10.00;99.90
9373;DHT22;10838;52.350;9.790;2022-11-15T05:04:44;10.00;99.90
9373;DHT22;10838;52.350;9.790;2022-11-15T05:07:11;10.00;99.90
9373;DHT22;10838;52.350;9.790;2022-11-15T05:09:38;10.00;99.90
9373;DHT22;10838;52.350;9.790;2022-11-15T05:12:04;10.00;99.90
9373;DHT22;10838;52.350;9.790;2022-11-15T05:14:31;10.10;99.90
9373;DHT22;10838;52.350;9.790;2022-11-15T05:16:58;10.00;99.90
9373;DHT22;10838;52.350;9.790;2022-11-15T05:19:24;10.00;99.90
9373;DHT22;10838;52.350;9.790;2022-11-15T05:21:51;10.00;99.90
9373;DHT22;10838;52.350;9.790;2022-11-15T05:24:19;10.00;99.90
9373;DHT22;10838;52.350;9.790;2022-11-15T05:26:46;10.00;99.90
9373;DHT22;10838;52.350;9.790;2022-11-15T05:29:12;10.00;99.90
9373;DHT22;10838;52.350;9.790;2022-11-15T05:31:40;10.00;99.90
9373;DHT22;10838;52.350;9.790;2022-11-15T05:34:07;9.90;99.90
9373;DHT22;10838;52.350;9.790;2022-11-15T05:36:36;9.90;99.90
9373;DHT22;10838;52.350;9.790;2022-11-15T05:39:04;9.90;99.90
9373;DHT22;10838;52.350;9.790;2022-11-15T05:41:35;9.90;99.90
9373;DHT22;10838;52.350;9.790;2022-11-15T05:44:03;9.90;99.90
9373;DHT22;10838;52.350;9.790;2022-11-15T05:46:33;9.90;99.90
9373;DHT22;10838;52.350;9.790;2022-11-15T05:49:00;9.90;99.90
9373;DHT22;10838;52.350;9.790;2022-11-15T05:51:27;9.90;99.90
9373;DHT22;10838;52.350;9.790;2022-11-15T05:53:56;9.90;99.90
9373;DHT22;10838;52.350;9.790;2022-11-15T05:56:24;9.90;99.90
9373;DHT22;10838;52.350;9.790;2022-11-15T05:58:53;9.90;99.90
9373;DHT22;10838;52.350;9.790;2022-11-15T06:01:21;9.90;99.90
9373;DHT22;10838;52.350;9.790;2022-11-15T06:03:48;10.00;99.90
9373;DHT22;10838;52.350;9.790;2022-11-15T06:06:14;10.00;99.90
9373;DHT22;10838;52.350;9.790;2022-11-15T06:08:41;10.00;99.90
9373;DHT22;10838;52.350;9.790;2022-11-15T06:11:08;10.00;99.90
9373;DHT22;10838;52.350;9.790;2022-11-15T06:13:34;10.00;99.90
9373;DHT22;10838;52.350;9.790;2022-11-15T06:16:03;10.00;99.90
9373;DHT22;10838;52.350;9.790;2022-11-15T06:18:31;10.00;99.90
9373;DHT22;10838;52.350;9.790;2022-11-15T06:20:59;10.00;99.90
9373;DHT22;10838;52.350;9.790;2022-11-15T06:23:26;10.00;99.90
9373;DHT22;10838;52.350;9.790;2022-11-15T06:25:53;10.00;99.90
9373;DHT22;10838;52.350;9.790;2022-11-15T06:28:20;9.90;99.90
9373;DHT22;10838;52.350;9.790;2022-11-15T06:30:46;9.90;99.90
9373;DHT22;10838;52.350;9.790;2022-11-15T06:33:14;9.80;99.90
9373;DHT22;10838;52.350;9.790;2022-11-15T06:35:41;9.80;99.90
9373;DHT22;10838;52.350;9.790;2022-11-15T06:38:09;9.80;99.90
9373;DHT22;10838;52.350;9.790;2022-11-15T06:40:39;9.80;99.90
9373;DHT22;10838;52.350;9.790;2022-11-15T06:43:06;9.70;99.90
9373;DHT22;10838;52.350;9.790;2022-11-15T06:45:33;9.70;99.90
9373;DHT22;10838;52.350;9.790;2022-11-15T06:47:59;9.70;99.90
9373;DHT22;10838;52.350;9.790;2022-11-15T06:50:27;9.60;99.90
9373;DHT22;10838;52.350;9.790;2022-11-15T06:52:54;9.60;99.90
9373;DHT22;10838;52.350;9.790;2022-11-15T06:55:21;9.60;99.90
9373;DHT22;10838;52.350;9.790;2022-11-15T06:57:48;9.50;99.90
9373;DHT22;10838;52.350;9.790;2022-11-15T07:00:17;9.50;99.90
9373;DHT22;10838;52.350;9.790;2022-11-15T07:02:43;9.50;99.90
9373;DHT22;10838;52.350;9.790;2022-11-15T07:05:10;9.40;99.90
9373;DHT22;10838;52.350;9.790;2022-11-15T07:07:39;9.40;99.90
9373;DHT22;10838;52.350;9.790;2022-11-15T07:10:07;9.40;99.90
9373;DHT22;10838;52.350;9.790;2022-11-15T07:12:34;9.40;99.90
9373;DHT22;10838;52.350;9.790;2022-11-15T07:15:00;9.40;99.90
9373;DHT22;10838;52.350;9.790;2022-11-15T07:17:27;9.40;99.90
9373;DHT22;10838;52.350;9.790;2022-11-15T07:19:54;9.40;99.90
9373;DHT22;10838;52.350;9.790;2022-11-15T07:22:20;9.40;99.90
9373;DHT22;10838;52.350;9.790;2022-11-15T07:24:48;9.40;99.90
9373;DHT22;10838;52.350;9.790;2022-11-15T07:27:15;9.40;99.90
9373;DHT22;10838;52.350;9.790;2022-11-15T07:29:42;9.40;99.90
9373;DHT22;10838;52.350;9.790;2022-11-15T07:32:09;9.40;99.90
9373;DHT22;10838;52.350;9.790;2022-11-15T07:34:36;9.40;99.90
9373;DHT22;10838;52.350;9.790;2022-11-15T07:37:02;9.40;99.90
9373;DHT22;10838;52.350;9.790;2022-11-15T07:39:29;9.40;99.90
9373;DHT22;10838;52.350;9.790;2022-11-15T07:41:57;9.40;99.90
9373;DHT22;10838;52.350;9.790;2022-11-15T07:44:38;9.40;99.90
9373;DHT22;10838;52.350;9.790;2022-11-15T07:47:04;9.50;99.90
9373;DHT22;10838;52.350;9.790;2022-11-15T07:49:31;9.50;99.90
9373;DHT22;10838;52.350;9.790;2022-11-15T07:51:58;9.50;99.90
9373;DHT22;10838;52.350;9.790;2022-11-15T07:54:24;9.50;99.90
9373;DHT22;10838;52.350;9.790;2022-11-15T07:56:51;9.60;99.90
9373;DHT22;10838;52.350;9.790;2022-11-15T07:59:19;9.60;99.90
9373;DHT22;10838;52.350;9.790;2022-11-15T08:01:46;9.60;99.90
9373;DHT22;10838;52.350;9.790;2022-11-15T08:04:12;9.70;99.90
9373;DHT22;10838;52.350;9.790;2022-11-15T08:06:39;9.70;99.90
9373;DHT22;10838;52.350;9.790;2022-11-15T08:09:06;9.70;99.90
9373;DHT22;10838;52.350;9.790;2022-11-15T08:11:32;9.70;99.90
9373;DHT22;10838;52.350;9.790;2022-11-15T08:13:59;9.80;99.90
9373;DHT22;10838;52.350;9.790;2022-11-15T08:16:27;9.70;99.90
9373;DHT22;10838;52.350;9.790;2022-11-15T08:18:54;9.80;99.90
9373;DHT22;10838;52.350;9.790;2022-11-15T08:21:21;9.80;99.90
9373;DHT22;10838;52.350;9.790;2022-11-15T08:23:48;9.80;99.90
9373;DHT22;10838;52.350;9.790;2022-11-15T08:26:14;9.80;99.90
9373;DHT22;10838;52.350;9.790;2022-11-15T08:28:42;9.90;99.90
9373;DHT22;10838;52.350;9.790;2022-11-15T08:31:13;9.90;99.90
9373;DHT22;10838;52.350;9.790;2022-11-15T08:33:41;9.90;99.90
9373;DHT22;10838;52.350;9.790;2022-11-15T08:36:12;10.00;99.90
9373;DHT22;10838;52.350;9.790;2022-11-15T08:38:39;10.00;99.90
9373;DHT22;10838;52.350;9.790;2022-11-15T08:41:06;10.10;99.90
9373;DHT22;10838;52.350;9.790;2022-11-15T08:43:33;10.20;99.90
9373;DHT22;10838;52.350;9.790;2022-11-15T08:45:59;10.20;99.90
9373;DHT22;10838;52.350;9.790;2022-11-15T08:48:26;10.20;99.90
9373;DHT22;10838;52.350;9.790;2022-11-15T08:50:55;10.30;99.90
9373;DHT22;10838;52.350;9.790;2022-11-15T08:53:21;10.30;99.90
9373;DHT22;10838;52.350;9.790;2022-11-15T08:55:48;10.40;99.90
9373;DHT22;10838;52.350;9.790;2022-11-15T08:58:15;10.40;99.90
9373;DHT22;10838;52.350;9.790;2022-11-15T09:00:42;10.50;99.90
9373;DHT22;10838;52.350;9.790;2022-11-15T09:03:08;10.50;99.90
9373;DHT22;10838;52.350;9.790;2022-11-15T09:05:36;10.50;99.90
9373;DHT22;10838;52.350;9.790;2022-11-15T09:08:05;10.60;99.90
9373;DHT22;10838;52.350;9.790;2022-11-15T09:10:31;10.60;99.90
9373;DHT22;10838;52.350;9.790;2022-11-15T09:12:58;10.70;99.90
9373;DHT22;10838;52.350;9.790;2022-11-15T09:15:25;10.70;99.90
9373;DHT22;10838;52.350;9.790;2022-11-15T09:17:51;10.70;99.90
9373;DHT22;10838;52.350;9.790;2022-11-15T09:20:18;10.80;99.90
9373;DHT22;10838;52.350;9.790;2022-11-15T09:22:45;10.90;99.90
9373;DHT22;10838;52.350;9.790;2022-11-15T09:25:13;10.90;99.90
9373;DHT22;10838;52.350;9.790;2022-11-15T09:27:39;11.00;99.90
9373;DHT22;10838;52.350;9.790;2022-11-15T09:30:07;11.00;99.90
9373;DHT22;10838;52.350;9.790;2022-11-15T09:32:34;11.10;99.90
9373;DHT22;10838;52.350;9.790;2022-11-15T09:35:01;11.10;99.90
9373;DHT22;10838;52.350;9.790;2022-11-15T09:37:28;11.20;99.90
9373;DHT22;10838;52.350;9.790;2022-11-15T09:39:55;11.20;99.90
9373;DHT22;10838;52.350;9.790;2022-11-15T09:42:38;11.30;99.90
9373;DHT22;10838;52.350;9.790;2022-11-15T09:45:15;11.30;99.90
9373;DHT22;10838;52.350;9.790;2022-11-15T09:48:06;11.40;99.90
9373;DHT22;10838;52.350;9.790;2022-11-15T09:50:38;11.50;99.90
9373;DHT22;10838;52.350;9.790;2022-11-15T09:53:11;11.60;99.90
9373;DHT22;10838;52.350;9.790;2022-11-15T09:55:46;11.60;99.90
9373;DHT22;10838;52.350;9.790;2022-11-15T09:58:24;11.70;99.90
9373;DHT22;10838;52.350;9.790;2022-11-15T10:00:53;11.70;99.90
9373;DHT22;10838;52.350;9.790;2022-11-15T10:03:26;11.80;99.90
9373;DHT22;10838;52.350;9.790;2022-11-15T10:05:56;11.80;99.90
9373;DHT22;10838;52.350;9.790;2022-11-15T10:11:18;11.90;99.90
9373;DHT22;10838;52.350;9.790;2022-11-15T10:13:49;11.90;99.90
9373;DHT22;10838;52.350;9.790;2022-11-15T10:19:15;12.00;99.90
9373;DHT22;10838;52.350;9.790;2022-11-15T10:21:54;12.10;99.90
9373;DHT22;10838;52.350;9.790;2022-11-15T10:24:27;12.10;99.90
9373;DHT22;10838;52.350;9.790;2022-11-15T10:26:54;12.20;99.90
9373;DHT22;10838;52.350;9.790;2022-11-15T10:29:24;12.20;99.90
9373;DHT22;10838;52.350;9.790;2022-11-15T10:31:51;12.30;99.90
9373;DHT22;10838;52.350;9.790;2022-11-15T10:34:20;12.30;99.90
9373;DHT22;10838;52.350;9.790;2022-11-15T10:36:54;12.40;99.90
9373;DHT22;10838;52.350;9.790;2022-11-15T10:39:21;12.40;99.80
9373;DHT22;10838;52.350;9.790;2022-11-15T10:41:48;12.50;99.80
9373;DHT22;10838;52.350;9.790;2022-11-15T10:44:28;12.50;99.70
9373;DHT22;10838;52.350;9.790;2022-11-15T10:47:21;12.50;99.70
9373;DHT22;10838;52.350;9.790;2022-11-15T10:49:55;12.60;99.70
9373;DHT22;10838;52.350;9.790;2022-11-15T10:52:22;12.60;99.70
9373;DHT22;10838;52.350;9.790;2022-11-15T10:54:52;12.70;99.60
9373;DHT22;10838;52.350;9.790;2022-11-15T10:57:22;12.70;99.60
9373;DHT22;10838;52.350;9.790;2022-11-15T10:59:53;12.70;99.60
9373;DHT22;10838;52.350;9.790;2022-11-15T11:02:29;12.80;99.60
9373;DHT22;10838;52.350;9.790;2022-11-15T11:04:57;12.80;99.60
9373;DHT22;10838;52.350;9.790;2022-11-15T11:07:25;12.90;99.60
9373;DHT22;10838;52.350;9.790;2022-11-15T11:09:58;12.90;99.50
9373;DHT22;10838;52.350;9.790;2022-11-15T11:12:28;13.00;99.50
9373;DHT22;10838;52.350;9.790;2022-11-15T11:14:57;13.00;99.50
9373;DHT22;10838;52.350;9.790;2022-11-15T11:17:32;13.00;99.50
9373;DHT22;10838;52.350;9.790;2022-11-15T11:20:07;13.00;99.50
9373;DHT22;10838;52.350;9.790;2022-11-15T11:22:39;13.00;99.40
9373;DHT22;10838;52.350;9.790;2022-11-15T11:25:19;13.00;99.40
9373;DHT22;10838;52.350;9.790;2022-11-15T11:28:00;13.10;99.50
9373;DHT22;10838;52.350;9.790;2022-11-15T11:30:42;13.10;99.40
9373;DHT22;10838;52.350;9.790;2022-11-15T11:33:16;13.10;99.40
9373;DHT22;10838;52.350;9.790;2022-11-15T11:35:53;13.10;99.40
9373;DHT22;10838;52.350;9.790;2022-11-15T11:38:37;13.20;99.30
9373;DHT22;10838;52.350;9.790;2022-11-15T11:41:12;13.20;99.30
9373;DHT22;10838;52.350;9.790;2022-11-15T11:43:50;13.20;99.30
9373;DHT22;10838;52.350;9.790;2022-11-15T11:46:51;13.20;99.30
9373;DHT22;10838;52.350;9.790;2022-11-15T11:49:23;13.30;99.30
9373;DHT22;10838;52.350;9.790;2022-11-15T11:51:54;13.30;99.30
9373;DHT22;10838;52.350;9.790;2022-11-15T11:54:26;13.30;99.30
9373;DHT22;10838;52.350;9.790;2022-11-15T11:56:58;13.30;99.30
9373;DHT22;10838;52.350;9.790;2022-11-15T11:59:32;13.40;99.20
9373;DHT22;10838;52.350;9.790;2022-11-15T12:02:07;13.40;99.20
9373;DHT22;10838;52.350;9.790;2022-11-15T12:04:40;13.40;99.20
9373;DHT22;10838;52.350;9.790;2022-11-15T12:07:09;13.50;99.20
9373;DHT22;10838;52.350;9.790;2022-11-15T12:09:41;13.50;99.20
9373;DHT22;10838;52.350;9.790;2022-11-15T12:12:13;13.50;99.10
9373;DHT22;10838;52.350;9.790;2022-11-15T12:14:46;13.50;99.10
9373;DHT22;10838;52.350;9.790;2022-11-15T12:17:19;13.60;99.10
9373;DHT22;10838;52.350;9.790;2022-11-15T12:19:48;13.60;99.10
9373;DHT22;10838;52.350;9.790;2022-11-15T12:22:19;13.60;99.10
9373;DHT22;10838;52.350;9.790;2022-11-15T12:24:51;13.60;99.10
9373;DHT22;10838;52.350;9.790;2022-11-15T12:27:34;13.60;99.00
9373;DHT22;10838;52.350;9.790;2022-11-15T12:30:04;13.60;99.00
9373;DHT22;10838;52.350;9.790;2022-11-15T12:32:38;13.60;99.10
9373;DHT22;10838;52.350;9.790;2022-11-15T12:35:21;13.60;99.10
9373;DHT22;10838;52.350;9.790;2022-11-15T12:37:50;13.60;99.10
9373;DHT22;10838;52.350;9.790;2022-11-15T12:40:27;13.60;99.10
9373;DHT22;10838;52.350;9.790;2022-11-15T12:43:10;13.60;99.10
9373;DHT22;10838;52.350;9.790;2022-11-15T12:45:53;13.60;99.10
9373;DHT22;10838;52.350;9.790;2022-11-15T12:48:47;13.60;99.00
9373;DHT22;10838;52.350;9.790;2022-11-15T12:51:15;13.60;99.00
9373;DHT22;10838;52.350;9.790;2022-11-15T12:53:41;13.60;99.00
9373;DHT22;10838;52.350;9.790;2022-11-15T12:56:22;13.60;99.00
9373;DHT22;10838;52.350;9.790;2022-11-15T12:58:51;13.60;99.00
9373;DHT22;10838;52.350;9.790;2022-11-15T13:01:57;13.60;99.00
9373;DHT22;10838;52.350;9.790;2022-11-15T13:04:28;13.60;99.00
9373;DHT22;10838;52.350;9.790;2022-11-15T13:06:57;13.70;99.00
9373;DHT22;10838;52.350;9.790;2022-11-15T13:09:50;13.70;99.00
9373;DHT22;10838;52.350;9.790;2022-11-15T13:15:46;13.70;98.90
9373;DHT22;10838;52.350;9.790;2022-11-15T13:18:32;13.70;98.90
9373;DHT22;10838;52.350;9.790;2022-11-15T13:21:01;13.80;98.90
9373;DHT22;10838;52.350;9.790;2022-11-15T13:23:52;13.80;98.90
9373;DHT22;10838;52.350;9.790;2022-11-15T13:26:19;13.80;98.90
9373;DHT22;10838;52.350;9.790;2022-11-15T13:28:49;13.80;98.90
9373;DHT22;10838;52.350;9.790;2022-11-15T13:31:29;13.80;98.90
9373;DHT22;10838;52.350;9.790;2022-11-15T13:34:00;13.80;98.90
9373;DHT22;10838;52.350;9.790;2022-11-15T13:36:31;13.90;98.90
9373;DHT22;10838;52.350;9.790;2022-11-15T13:39:01;13.90;98.90
9373;DHT22;10838;52.350;9.790;2022-11-15T13:41:30;13.90;98.90
9373;DHT22;10838;52.350;9.790;2022-11-15T13:43:57;14.00;98.90
9373;DHT22;10838;52.350;9.790;2022-11-15T13:46:26;14.00;98.90
9373;DHT22;10838;52.350;9.790;2022-11-15T13:48:55;14.00;98.90
9373;DHT22;10838;52.350;9.790;2022-11-15T13:51:37;14.00;98.90
9373;DHT22;10838;52.350;9.790;2022-11-15T13:54:14;14.10;98.90
9373;DHT22;10838;52.350;9.790;2022-11-15T13:56:45;14.10;98.80
9373;DHT22;10838;52.350;9.790;2022-11-15T13:59:17;14.10;98.80
9373;DHT22;10838;52.350;9.790;2022-11-15T14:01:46;14.10;98.80
9373;DHT22;10838;52.350;9.790;2022-11-15T14:04:17;14.10;98.80
9373;DHT22;10838;52.350;9.790;2022-11-15T14:06:48;14.10;98.80
9373;DHT22;10838;52.350;9.790;2022-11-15T14:09:29;14.20;98.80
9373;DHT22;10838;52.350;9.790;2022-11-15T14:11:58;14.20;98.80
9373;DHT22;10838;52.350;9.790;2022-11-15T14:14:26;14.20;98.70
9373;DHT22;10838;52.350;9.790;2022-11-15T14:16:54;14.20;98.70
9373;DHT22;10838;52.350;9.790;2022-11-15T14:19:37;14.20;98.70
9373;DHT22;10838;52.350;9.790;2022-11-15T14:22:13;14.20;98.70
9373;DHT22;10838;52.350;9.790;2022-11-15T14:24:42;14.20;98.70
9373;DHT22;10838;52.350;9.790;2022-11-15T14:27:21;14.20;98.70
9373;DHT22;10838;52.350;9.790;2022-11-15T14:29:48;14.10;98.70
9373;DHT22;10838;52.350;9.790;2022-11-15T14:32:16;14.10;98.70
9373;DHT22;10838;52.350;9.790;2022-11-15T14:34:43;14.10;98.70
9373;DHT22;10838;52.350;9.790;2022-11-15T14:37:19;14.10;98.70
9373;DHT22;10838;52.350;9.790;2022-11-15T14:39:46;14.10;98.70
9373;DHT22;10838;52.350;9.790;2022-11-15T14:42:13;14.10;98.60
9373;DHT22;10838;52.350;9.790;2022-11-15T14:44:40;14.10;98.60
9373;DHT22;10838;52.350;9.790;2022-11-15T14:47:07;14.10;98.70
9373;DHT22;10838;52.350;9.790;2022-11-15T14:49:33;14.10;98.70
9373;DHT22;10838;52.350;9.790;2022-11-15T14:52:00;14.10;98.70
9373;DHT22;10838;52.350;9.790;2022-11-15T14:54:28;14.00;98.70
9373;DHT22;10838;52.350;9.790;2022-11-15T14:56:55;14.00;98.70
9373;DHT22;10838;52.350;9.790;2022-11-15T14:59:21;14.00;98.70
9373;DHT22;10838;52.350;9.790;2022-11-15T15:01:48;14.00;98.70
9373;DHT22;10838;52.350;9.790;2022-11-15T15:04:15;14.00;98.70
9373;DHT22;10838;52.350;9.790;2022-11-15T15:06:41;14.00;98.70
9373;DHT22;10838;52.350;9.790;2022-11-15T15:09:08;14.00;98.70
9373;DHT22;10838;52.350;9.790;2022-11-15T15:11:36;13.90;98.70
9373;DHT22;10838;52.350;9.790;2022-11-15T15:14:02;13.90;98.70
9373;DHT22;10838;52.350;9.790;2022-11-15T15:16:29;13.90;98.70
9373;DHT22;10838;52.350;9.790;2022-11-15T15:18:56;13.90;98.70
9373;DHT22;10838;52.350;9.790;2022-11-15T15:21:24;13.90;98.70
9373;DHT22;10838;52.350;9.790;2022-11-15T15:23:51;13.90;98.70
9373;DHT22;10838;52.350;9.790;2022-11-15T15:26:19;13.90;98.70
9373;DHT22;10838;52.350;9.790;2022-11-15T15:28:47;13.90;98.70
9373;DHT22;10838;52.350;9.790;2022-11-15T15:31:16;13.90;98.70
9373;DHT22;10838;52.350;9.790;2022-11-15T15:33:43;13.90;98.70
9373;DHT22;10838;52.350;9.790;2022-11-15T15:36:11;13.90;98.70
9373;DHT22;10838;52.350;9.790;2022-11-15T15:38:38;13.90;98.70
9373;DHT22;10838;52.350;9.790;2022-11-15T15:41:09;13.90;98.70
9373;DHT22;10838;52.350;9.790;2022-11-15T15:43:36;13.90;98.70
9373;DHT22;10838;52.350;9.790;2022-11-15T15:46:04;13.90;98.70
9373;DHT22;10838;52.350;9.790;2022-11-15T15:48:31;13.90;98.70
9373;DHT22;10838;52.350;9.790;2022-11-15T15:50:58;13.90;98.70
9373;DHT22;10838;52.350;9.790;2022-11-15T15:53:25;13.90;98.70
9373;DHT22;10838;52.350;9.790;2022-11-15T15:55:52;13.90;98.60
9373;DHT22;10838;52.350;9.790;2022-11-15T15:58:18;13.90;98.60
9373;DHT22;10838;52.350;9.790;2022-11-15T16:00:45;13.90;98.60
9373;DHT22;10838;52.350;9.790;2022-11-15T16:03:13;13.90;98.60
9373;DHT22;10838;52.350;9.790;2022-11-15T16:05:40;13.90;98.60
9373;DHT22;10838;52.350;9.790;2022-11-15T16:08:12;13.90;98.60
9373;DHT22;10838;52.350;9.790;2022-11-15T16:10:42;13.90;98.60
9373;DHT22;10838;52.350;9.790;2022-11-15T16:13:09;13.90;98.60
9373;DHT22;10838;52.350;9.790;2022-11-15T16:15:36;13.80;98.60
9373;DHT22;10838;52.350;9.790;2022-11-15T16:18:04;13.80;98.70
9373;DHT22;10838;52.350;9.790;2022-11-15T16:20:36;13.80;98.70
9373;DHT22;10838;52.350;9.790;2022-11-15T16:23:06;13.80;98.70
9373;DHT22;10838;52.350;9.790;2022-11-15T16:25:37;13.70;98.70